LIPL/QBS METAR and TAF weather

Enter ICAO airport designator
Station Type Date Time Source
LIPL METAR 2020/06/05 11:55 UTC NOAA

LIPL 051155Z 26005KT 9999 FEW030 22/14 Q0997 RMK FEW VIS MIN 9999 WIND THR31 28007KT WIND THR13 27004KT BLU


Station Type Date Time Source
LIPL Decoded METAR 2020/06/05 11:55 UTC NOAA

Brescia / Ghedi, Italy (LIPL) 45-25N 010-17E 97M
Jun 05, 2020 - 07:55 AM EDT / 2020.06.05 1155 UTC
Wind: from the W (260 degrees) at 6 MPH (5 KT):0
Visibility: greater than 7 mile(s):0
Sky conditions: mostly clear
Temperature: 71 F (22 C)
Dew Point: 57 F (14 C)
Relative Humidity: 60%
Pressure (altimeter): 29.44 in. Hg (0997 hPa)
ob: LIPL 051155Z 26005KT 9999 FEW030 22/14 Q0997 RMK FEW VIS MIN 9999 WIND THR31 28007KT WIND THR13 27004KT BLU
cycle: 12

Station Type Date Time Source
LIPL TAF 2020/02/28 09:24 UTC NOAA

TAF TAF LIPL 280800Z 2809/2821 27007KT CAVOK

Example: see airport list